createdAt,value
2023-02-27T00:01:53.289Z,-4.32
2023-02-27T00:04:19.607Z,-4.28
2023-02-27T00:06:46.346Z,-4.21
2023-02-27T00:09:13.022Z,-4.17
2023-02-27T00:11:39.518Z,-4.08
2023-02-27T00:14:06.012Z,-4.11
2023-02-27T00:16:32.360Z,-4.21
2023-02-27T00:19:01.098Z,-4.22
2023-02-27T00:21:28.185Z,-4.33
2023-02-27T00:23:55.432Z,-4.38
2023-02-27T00:26:21.903Z,-4.37
2023-02-27T00:28:48.730Z,-4.49
2023-02-27T00:31:15.436Z,-4.56
2023-02-27T00:33:41.798Z,-4.62
2023-02-27T00:36:08.712Z,-4.64
2023-02-27T00:38:35.416Z,-4.63
2023-02-27T00:41:02.125Z,-4.65
2023-02-27T00:43:28.557Z,-4.56
2023-02-27T00:45:55.308Z,-4.67
2023-02-27T00:48:21.759Z,-4.69
2023-02-27T00:50:49.899Z,-4.72
2023-02-27T00:53:16.803Z,-4.76
2023-02-27T00:55:43.295Z,-4.78
2023-02-27T00:58:09.653Z,-4.76
2023-02-27T01:00:36.326Z,-4.80
2023-02-27T01:03:02.938Z,-4.72
2023-02-27T01:05:29.282Z,-4.78
2023-02-27T01:07:56.097Z,-4.82
2023-02-27T01:10:22.640Z,-4.77
2023-02-27T01:12:48.953Z,-4.81
2023-02-27T01:15:15.736Z,-4.79
2023-02-27T01:17:42.487Z,-4.77
2023-02-27T01:20:11.326Z,-4.74
2023-02-27T01:22:37.953Z,-4.67
2023-02-27T01:25:04.844Z,-4.64
2023-02-27T01:27:31.193Z,-4.72
2023-02-27T01:29:57.572Z,-4.77
2023-02-27T01:32:24.592Z,-4.69
2023-02-27T01:34:51.043Z,-4.71
2023-02-27T01:37:17.808Z,-4.71
2023-02-27T01:39:44.503Z,-4.73
2023-02-27T01:42:24.785Z,-4.73
2023-02-27T01:45:25.498Z,-4.76
2023-02-27T01:47:56.826Z,-4.73
2023-02-27T01:50:23.857Z,-4.83
2023-02-27T01:52:56.490Z,-4.77
2023-02-27T01:55:25.847Z,-4.79
2023-02-27T01:57:53.170Z,-4.80
2023-02-27T02:00:20.264Z,-4.78
2023-02-27T02:03:15.648Z,-4.79
2023-02-27T02:05:43.905Z,-4.88
2023-02-27T02:08:11.538Z,-4.88
2023-02-27T02:10:39.501Z,-4.91
2023-02-27T02:13:06.570Z,-4.90
2023-02-27T02:15:39.797Z,-4.90
2023-02-27T02:18:19.509Z,-4.86
2023-02-27T02:20:55.179Z,-4.93
2023-02-27T02:23:33.636Z,-4.88
2023-02-27T02:26:38.119Z,-4.96
2023-02-27T02:29:25.801Z,-4.93
2023-02-27T02:32:27.429Z,-4.93
2023-02-27T02:35:21.666Z,-4.94
2023-02-27T02:37:54.203Z,-5.00
2023-02-27T02:40:28.639Z,-4.97
2023-02-27T02:43:25.183Z,-5.07
2023-02-27T02:46:16.087Z,-5.08
2023-02-27T02:48:56.853Z,-5.13
2023-02-27T02:51:34.953Z,-5.11
2023-02-27T02:54:17.764Z,-5.16
2023-02-27T02:56:48.136Z,-5.12
2023-02-27T02:59:22.521Z,-5.11
2023-02-27T03:02:02.486Z,-5.07
2023-02-27T03:04:34.429Z,-5.13
2023-02-27T03:07:20.578Z,-5.10
2023-02-27T03:09:58.920Z,-5.06
2023-02-27T03:12:28.896Z,-5.06
2023-02-27T03:15:02.363Z,-4.97
2023-02-27T03:17:43.481Z,-5.08
2023-02-27T03:20:24.420Z,-5.13
2023-02-27T03:22:55.796Z,-5.11
2023-02-27T03:25:25.536Z,-5.27
2023-02-27T03:27:57.483Z,-5.25
2023-02-27T03:30:51.616Z,-5.26
2023-02-27T03:33:30.668Z,-5.29
2023-02-27T03:39:03.405Z,-5.29
2023-02-27T03:41:38.841Z,-5.27
2023-02-27T03:44:31.996Z,-5.26
2023-02-27T03:46:59.318Z,-5.25
2023-02-27T03:49:26.057Z,-5.22
2023-02-27T03:51:52.795Z,-5.28
2023-02-27T03:54:31.422Z,-5.25
2023-02-27T03:57:01.686Z,-5.28
2023-02-27T03:59:29.541Z,-5.18
2023-02-27T04:01:57.851Z,-5.20
2023-02-27T04:04:27.628Z,-5.24
2023-02-27T04:07:18.673Z,-5.26
2023-02-27T04:10:22.314Z,-5.32
2023-02-27T04:13:07.158Z,-5.24
2023-02-27T04:16:06.798Z,-5.24
2023-02-27T04:18:56.978Z,-5.24
2023-02-27T04:21:34.306Z,-5.19
2023-02-27T04:24:17.062Z,-5.22
2023-02-27T04:26:51.917Z,-5.26
2023-02-27T04:29:43.855Z,-5.28
2023-02-27T04:32:25.833Z,-5.33
2023-02-27T04:34:58.224Z,-5.30
2023-02-27T04:37:50.402Z,-5.27
2023-02-27T04:40:52.667Z,-5.25
2023-02-27T04:43:22.376Z,-5.41
2023-02-27T04:45:50.051Z,-5.41
2023-02-27T04:48:49.901Z,-5.36
2023-02-27T04:51:20.586Z,-5.39
2023-02-27T04:53:59.105Z,-5.44
2023-02-27T04:56:39.071Z,-5.46
2023-02-27T04:59:11.888Z,-5.48
2023-02-27T05:01:44.304Z,-5.52
2023-02-27T05:04:15.778Z,-5.51
2023-02-27T05:06:46.283Z,-5.50
2023-02-27T05:09:29.810Z,-5.51
2023-02-27T05:12:01.790Z,-5.52
2023-02-27T05:14:32.146Z,-5.57
2023-02-27T05:17:12.004Z,-5.54
2023-02-27T05:19:42.518Z,-5.53
2023-02-27T05:22:25.382Z,-5.56
2023-02-27T05:25:13.775Z,-5.52
2023-02-27T05:27:48.406Z,-5.53
2023-02-27T05:30:28.531Z,-5.46
2023-02-27T05:33:05.371Z,-5.46
2023-02-27T05:35:38.517Z,-5.46
2023-02-27T05:38:09.912Z,-5.45
2023-02-27T05:40:51.374Z,-5.49
2023-02-27T05:43:47.170Z,-5.57
2023-02-27T05:46:16.363Z,-5.55
2023-02-27T05:48:49.588Z,-5.55
2023-02-27T05:51:17.914Z,-5.56
2023-02-27T05:53:52.935Z,-5.53
2023-02-27T05:56:21.554Z,-5.49
2023-02-27T05:58:54.432Z,-5.48
2023-02-27T06:01:21.116Z,-5.48
2023-02-27T06:03:47.525Z,-5.54
2023-02-27T06:06:16.900Z,-5.47
2023-02-27T06:08:44.567Z,-5.49
2023-02-27T06:11:11.613Z,-5.47
2023-02-27T06:13:40.235Z,-5.51
2023-02-27T06:16:10.485Z,-5.43
2023-02-27T06:18:36.804Z,-5.46
2023-02-27T06:21:04.366Z,-5.36
2023-02-27T06:23:31.201Z,-5.38
2023-02-27T06:25:58.054Z,-5.33
2023-02-27T06:28:24.959Z,-5.35
2023-02-27T06:30:57.018Z,-5.27
2023-02-27T06:33:26.266Z,-5.27
2023-02-27T06:35:52.900Z,-5.26
2023-02-27T06:38:19.349Z,-5.27
2023-02-27T06:40:46.203Z,-5.25
2023-02-27T06:43:12.566Z,-5.25
2023-02-27T06:45:39.498Z,-5.17
2023-02-27T06:48:06.136Z,-5.20
2023-02-27T06:50:32.798Z,-5.17
2023-02-27T06:52:59.472Z,-5.14
2023-02-27T06:55:25.814Z,-5.20
2023-02-27T06:57:52.271Z,-5.08
2023-02-27T07:00:19.294Z,-5.06
2023-02-27T07:02:45.650Z,-5.12
2023-02-27T07:05:12.140Z,-5.00
2023-02-27T07:07:39.633Z,-5.02
2023-02-27T07:10:11.077Z,-4.98
2023-02-27T07:12:38.053Z,-5.00
2023-02-27T07:15:05.955Z,-4.78
2023-02-27T07:17:32.290Z,-4.73
2023-02-27T07:19:58.926Z,-4.51
2023-02-27T07:22:25.266Z,-4.39
2023-02-27T07:24:51.596Z,-4.15
2023-02-27T07:27:18.417Z,-4.09
2023-02-27T07:29:44.785Z,-4.12
2023-02-27T07:32:11.317Z,-3.68
2023-02-27T07:34:38.668Z,-3.33
2023-02-27T07:37:05.048Z,-3.23
2023-02-27T07:39:31.438Z,-3.49
2023-02-27T07:41:58.095Z,-3.20
2023-02-27T07:44:24.439Z,-2.47
2023-02-27T07:46:51.312Z,-2.40
2023-02-27T07:49:18.244Z,-2.61
2023-02-27T07:51:44.822Z,-2.19
2023-02-27T07:54:11.198Z,-1.83
2023-02-27T07:56:38.175Z,-1.35
2023-02-27T07:59:04.597Z,-1.03
2023-02-27T08:01:30.926Z,-1.13
2023-02-27T08:03:57.690Z,-0.75
2023-02-27T08:06:24.888Z,-1.36
2023-02-27T08:08:51.723Z,-0.58
2023-02-27T08:11:18.460Z,-1.18
2023-02-27T08:14:03.832Z,-0.74
2023-02-27T08:16:30.810Z,-0.62
2023-02-27T08:18:58.185Z,0.33
2023-02-27T08:21:25.050Z,0.28
2023-02-27T08:23:51.910Z,0.22
2023-02-27T08:26:18.559Z,-0.23
2023-02-27T08:28:44.876Z,0.23
2023-02-27T08:31:12.410Z,0.18
2023-02-27T08:33:39.770Z,1.53
2023-02-27T08:36:07.570Z,0.71
2023-02-27T08:38:34.290Z,0.06
2023-02-27T08:41:01.046Z,-0.19
2023-02-27T08:43:27.902Z,0.58
2023-02-27T08:45:54.414Z,-0.55
2023-02-27T08:48:20.836Z,0.06
2023-02-27T08:50:47.929Z,0.10
2023-02-27T08:53:14.785Z,1.37
2023-02-27T08:55:41.937Z,2.66
2023-02-27T08:58:09.431Z,2.12
2023-02-27T09:00:35.867Z,1.58
2023-02-27T09:03:02.716Z,1.63
2023-02-27T09:05:29.128Z,2.18
2023-02-27T09:07:55.455Z,2.59
2023-02-27T09:10:23.017Z,1.84
2023-02-27T09:12:49.406Z,2.35
2023-02-27T09:15:15.935Z,3.38
2023-02-27T09:17:42.711Z,3.05
2023-02-27T09:20:10.705Z,2.62
2023-02-27T09:22:37.712Z,2.54
2023-02-27T09:25:05.024Z,2.61
2023-02-27T09:27:31.471Z,2.48
2023-02-27T09:29:58.510Z,2.97
2023-02-27T09:32:26.280Z,3.14
2023-02-27T09:34:53.170Z,2.70
2023-02-27T09:37:20.254Z,2.20
2023-02-27T09:39:47.503Z,2.14
2023-02-27T09:42:19.960Z,2.55
2023-02-27T09:44:49.805Z,2.97
2023-02-27T09:47:25.528Z,3.66
2023-02-27T09:50:18.368Z,4.02
2023-02-27T09:52:45.032Z,3.10
2023-02-27T09:55:17.286Z,2.93
2023-02-27T09:57:58.174Z,2.77
2023-02-27T10:00:49.460Z,2.81
2023-02-27T10:03:43.639Z,3.26
2023-02-27T10:06:26.901Z,2.82
2023-02-27T10:09:18.343Z,2.40
2023-02-27T10:12:17.119Z,2.95
2023-02-27T10:14:49.050Z,3.40
2023-02-27T10:17:31.178Z,3.43
2023-02-27T10:20:00.823Z,4.22
2023-02-27T10:22:47.908Z,2.86
2023-02-27T10:25:30.684Z,3.89
2023-02-27T10:28:08.713Z,3.29
2023-02-27T10:30:35.754Z,2.05
2023-02-27T10:33:22.012Z,2.64
2023-02-27T10:35:48.473Z,2.75
2023-02-27T10:38:26.909Z,3.04
2023-02-27T10:40:55.466Z,2.51
2023-02-27T10:43:21.877Z,2.79
2023-02-27T10:45:48.573Z,3.43
2023-02-27T10:48:16.373Z,3.10
2023-02-27T10:50:45.151Z,2.45
2023-02-27T10:53:19.457Z,2.82
2023-02-27T10:55:58.678Z,2.46
2023-02-27T10:58:26.158Z,2.14
2023-02-27T11:00:55.953Z,3.43
2023-02-27T11:03:29.132Z,2.25
2023-02-27T11:05:58.660Z,1.04
2023-02-27T11:08:28.298Z,2.03
2023-02-27T11:11:00.691Z,3.06
2023-02-27T11:13:30.540Z,3.45
2023-02-27T11:16:08.776Z,2.47
2023-02-27T11:18:37.769Z,2.82
2023-02-27T11:21:37.126Z,3.39
2023-02-27T11:24:19.370Z,3.14
2023-02-27T11:27:05.882Z,3.27
2023-02-27T11:29:34.306Z,3.47
2023-02-27T11:32:04.923Z,3.00
2023-02-27T11:34:49.895Z,3.96
2023-02-27T11:37:30.364Z,4.10
2023-02-27T11:40:09.259Z,2.76
2023-02-27T11:42:41.567Z,2.03
2023-02-27T11:46:23.803Z,1.75
2023-02-27T11:48:32.026Z,2.12
2023-02-27T11:51:10.869Z,2.22
2023-02-27T11:53:56.072Z,2.11
2023-02-27T11:56:36.143Z,1.97
2023-02-27T11:59:22.208Z,1.47
2023-02-27T12:01:51.738Z,1.44
2023-02-27T12:04:40.053Z,1.51
2023-02-27T12:07:16.818Z,1.40
2023-02-27T12:10:08.686Z,1.41
2023-02-27T12:12:53.597Z,1.96
2023-02-27T12:15:32.866Z,1.87
2023-02-27T12:18:11.371Z,1.97
2023-02-27T12:21:01.258Z,2.54
2023-02-27T12:23:48.213Z,2.70
2023-02-27T12:26:24.921Z,1.97
2023-02-27T12:28:57.827Z,2.10
2023-02-27T12:31:39.001Z,2.55
2023-02-27T12:34:12.195Z,2.04
2023-02-27T12:36:39.126Z,1.72
2023-02-27T12:39:06.094Z,1.66
2023-02-27T12:41:41.595Z,1.28
2023-02-27T12:44:17.331Z,1.25
2023-02-27T12:47:02.482Z,1.33
2023-02-27T12:49:40.575Z,1.36
2023-02-27T12:52:48.591Z,1.10
2023-02-27T12:55:23.989Z,1.15
2023-02-27T12:58:20.981Z,1.14
2023-02-27T13:01:00.241Z,1.45
2023-02-27T13:03:45.454Z,1.97
2023-02-27T13:06:29.858Z,1.97
2023-02-27T13:09:33.150Z,1.86
2023-02-27T13:12:25.250Z,1.31
2023-02-27T13:15:18.934Z,1.42
2023-02-27T13:17:49.779Z,1.08
2023-02-27T13:20:22.137Z,0.77
2023-02-27T13:22:59.004Z,0.92
2023-02-27T13:25:26.630Z,0.89
2023-02-27T13:28:07.677Z,1.69
2023-02-27T13:30:45.016Z,1.60
2023-02-27T13:33:20.477Z,0.50
2023-02-27T13:36:08.737Z,1.01
2023-02-27T13:38:44.448Z,1.38
2023-02-27T13:41:29.126Z,1.53
2023-02-27T13:43:57.680Z,1.30
2023-02-27T13:46:28.468Z,0.94
2023-02-27T13:49:28.320Z,0.86
2023-02-27T13:51:58.567Z,0.94
2023-02-27T13:54:31.894Z,0.96
2023-02-27T13:57:18.684Z,1.11
2023-02-27T13:59:53.717Z,1.33
2023-02-27T14:02:19.963Z,1.51
2023-02-27T14:04:55.484Z,1.41
2023-02-27T14:07:24.902Z,1.27
2023-02-27T14:10:00.275Z,0.81
2023-02-27T14:12:46.415Z,1.04
2023-02-27T14:15:22.639Z,1.06
2023-02-27T14:18:02.439Z,1.28
2023-02-27T14:20:38.829Z,1.11
2023-02-27T14:23:17.789Z,0.77
2023-02-27T14:26:14.141Z,0.66
2023-02-27T14:28:49.134Z,0.86
2023-02-27T14:31:28.439Z,0.55
2023-02-27T14:33:59.021Z,0.50
2023-02-27T14:36:30.601Z,0.53
2023-02-27T14:38:59.364Z,0.79
2023-02-27T14:41:41.209Z,0.36
2023-02-27T14:44:39.274Z,0.60
2023-02-27T14:47:08.862Z,0.88
2023-02-27T14:49:35.928Z,0.71
2023-02-27T14:52:12.999Z,0.46
2023-02-27T14:54:39.328Z,0.71
2023-02-27T14:57:07.389Z,0.54
2023-02-27T14:59:42.885Z,0.53
2023-02-27T15:02:18.461Z,0.30
2023-02-27T15:04:46.628Z,0.41
2023-02-27T15:07:26.594Z,0.36
2023-02-27T15:09:57.291Z,0.28
2023-02-27T15:12:25.165Z,0.31
2023-02-27T15:14:57.192Z,0.36
2023-02-27T15:17:36.164Z,0.45
2023-02-27T15:20:06.686Z,0.46
2023-02-27T15:22:39.339Z,0.62
2023-02-27T15:25:08.444Z,0.67
2023-02-27T15:27:37.392Z,0.16
2023-02-27T15:30:04.659Z,0.31
2023-02-27T15:32:37.854Z,0.25
2023-02-27T15:35:26.769Z,-0.27
2023-02-27T15:37:57.206Z,-0.39
2023-02-27T15:40:26.547Z,-0.39
2023-02-27T15:42:54.661Z,-0.44
2023-02-27T15:45:25.701Z,-0.62
2023-02-27T15:47:52.256Z,-0.59
2023-02-27T15:50:18.523Z,-0.54
2023-02-27T15:53:12.534Z,-0.37
2023-02-27T15:55:42.574Z,-0.47
2023-02-27T15:58:37.336Z,-0.68
2023-02-27T16:01:08.890Z,-0.38
2023-02-27T16:03:44.389Z,-0.25
2023-02-27T16:06:25.165Z,-0.69
2023-02-27T16:08:55.145Z,-0.60
2023-02-27T16:11:27.528Z,-0.85
2023-02-27T16:13:54.729Z,-0.64
2023-02-27T16:16:21.045Z,-0.84
2023-02-27T16:18:50.412Z,-0.85
2023-02-27T16:21:22.327Z,-0.70
2023-02-27T16:23:51.088Z,-0.87
2023-02-27T16:26:32.551Z,-0.92
2023-02-27T16:29:05.006Z,-0.91
2023-02-27T16:31:32.351Z,-0.93
2023-02-27T16:34:02.437Z,-1.03
2023-02-27T16:36:32.802Z,-0.96
2023-02-27T16:38:59.164Z,-0.92
2023-02-27T16:41:26.145Z,-0.93
2023-02-27T16:43:53.073Z,-0.84
2023-02-27T16:46:20.311Z,-0.87
2023-02-27T16:48:53.999Z,-1.00
2023-02-27T16:51:26.592Z,-1.26
2023-02-27T16:53:55.360Z,-1.21
2023-02-27T16:56:37.330Z,-1.18
2023-02-27T16:59:05.667Z,-1.23
2023-02-27T17:01:34.229Z,-1.28
2023-02-27T17:04:01.341Z,-1.17
2023-02-27T17:06:28.480Z,-1.19
2023-02-27T17:08:56.330Z,-1.24
2023-02-27T17:11:23.320Z,-1.16
2023-02-27T17:13:49.817Z,-1.17
2023-02-27T17:16:16.330Z,-1.13
2023-02-27T17:18:42.776Z,-1.20
2023-02-27T17:21:09.730Z,-1.35
2023-02-27T17:23:36.161Z,-1.22
2023-02-27T17:26:02.585Z,-1.45
2023-02-27T17:28:29.642Z,-1.41
2023-02-27T17:30:56.192Z,-1.41
2023-02-27T17:33:22.644Z,-1.40
2023-02-27T17:35:49.930Z,-1.45
2023-02-27T17:38:16.330Z,-1.41
2023-02-27T17:40:42.752Z,-1.17
2023-02-27T17:43:09.542Z,-1.26
2023-02-27T17:45:35.967Z,-1.33
2023-02-27T17:48:02.395Z,-1.17
2023-02-27T17:50:29.428Z,-1.14
2023-02-27T17:52:55.849Z,-1.36
2023-02-27T17:55:22.241Z,-1.44
2023-02-27T17:57:48.990Z,-1.47
2023-02-27T18:00:15.756Z,-1.50
2023-02-27T18:02:44.382Z,-1.59
2023-02-27T18:05:11.438Z,-1.49
2023-02-27T18:07:37.863Z,-1.61
2023-02-27T18:10:06.284Z,-1.61
2023-02-27T18:12:33.426Z,-1.55
2023-02-27T18:15:00.035Z,-1.63
2023-02-27T18:17:26.724Z,-1.57
2023-02-27T18:19:53.184Z,-1.36
2023-02-27T18:22:21.643Z,-1.64
2023-02-27T18:24:48.875Z,-1.63
2023-02-27T18:27:15.662Z,-1.54
2023-02-27T18:29:42.083Z,-1.71
2023-02-27T18:32:08.995Z,-1.55
2023-02-27T18:34:35.946Z,-1.71
2023-02-27T18:37:02.429Z,-1.85
2023-02-27T18:39:28.906Z,-1.89
2023-02-27T18:41:56.216Z,-1.86
2023-02-27T18:44:22.635Z,-1.98
2023-02-27T18:46:49.056Z,-1.98
2023-02-27T18:49:16.212Z,-2.03
2023-02-27T18:51:42.997Z,-1.88
2023-02-27T18:54:13.480Z,-1.75
2023-02-27T18:56:41.169Z,-1.90
2023-02-27T18:59:07.919Z,-1.83
2023-02-27T19:01:37.113Z,-1.81
2023-02-27T19:04:06.386Z,-1.63
2023-02-27T19:06:34.839Z,-1.84
2023-02-27T19:09:03.506Z,-1.89
2023-02-27T19:11:34.937Z,-1.87
2023-02-27T19:14:06.693Z,-1.94
2023-02-27T19:16:34.385Z,-1.82
2023-02-27T19:19:03.193Z,-1.82
2023-02-27T19:21:29.628Z,-1.91
2023-02-27T19:23:56.485Z,-2.11
2023-02-27T19:26:24.605Z,-2.11
2023-02-27T19:28:53.614Z,-2.22
2023-02-27T19:31:21.136Z,-2.18
2023-02-27T19:33:48.327Z,-2.20
2023-02-27T19:36:17.854Z,-2.14
2023-02-27T19:38:44.691Z,-2.18
2023-02-27T19:41:13.804Z,-2.14
2023-02-27T19:43:41.116Z,-2.18
2023-02-27T19:46:10.610Z,-1.98
2023-02-27T19:48:37.481Z,-2.13
2023-02-27T19:51:05.630Z,-2.00
2023-02-27T19:53:35.573Z,-1.98
2023-02-27T19:56:07.580Z,-2.08
2023-02-27T19:58:36.490Z,-2.13
2023-02-27T20:01:04.604Z,-2.21
2023-02-27T20:03:31.676Z,-2.13
2023-02-27T20:05:58.546Z,-2.16
2023-02-27T20:08:25.422Z,-2.15
2023-02-27T20:11:00.130Z,-2.19
2023-02-27T20:13:27.762Z,-2.25
2023-02-27T20:16:08.777Z,-2.18
2023-02-27T20:18:36.635Z,-2.11
2023-02-27T20:21:07.080Z,-2.11
2023-02-27T20:23:37.071Z,-2.07
2023-02-27T20:26:26.375Z,-2.14
2023-02-27T20:28:55.422Z,-2.12
2023-02-27T20:31:32.500Z,-2.09
2023-02-27T20:34:01.592Z,-2.15
2023-02-27T20:36:28.954Z,-2.14
2023-02-27T20:38:55.600Z,-2.18
2023-02-27T20:41:24.106Z,-1.96
2023-02-27T20:43:50.533Z,-2.09
2023-02-27T20:46:22.854Z,-2.21
2023-02-27T20:48:50.002Z,-2.07
2023-02-27T20:51:19.921Z,-1.99
2023-02-27T20:53:49.598Z,-2.03
2023-02-27T20:56:19.686Z,-2.07
2023-02-27T20:58:46.135Z,-1.96
2023-02-27T21:01:14.244Z,-1.91
2023-02-27T21:03:42.599Z,-2.07
2023-02-27T21:06:11.550Z,-2.02
2023-02-27T21:08:40.548Z,-1.99
2023-02-27T21:11:18.426Z,-2.03
2023-02-27T21:13:47.181Z,-2.00
2023-02-27T21:16:15.834Z,-1.92
2023-02-27T21:18:43.232Z,-2.00
2023-02-27T21:21:14.951Z,-2.10
2023-02-27T21:23:41.604Z,-2.14
2023-02-27T21:26:16.135Z,-2.28
2023-02-27T21:28:47.664Z,-2.26
2023-02-27T21:31:16.220Z,-2.21
2023-02-27T21:33:42.816Z,-2.17
2023-02-27T21:36:10.280Z,-2.34
2023-02-27T21:38:38.720Z,-2.39
2023-02-27T21:41:11.818Z,-2.45
2023-02-27T21:43:40.679Z,-2.33
2023-02-27T21:46:09.067Z,-2.43
2023-02-27T21:48:35.751Z,-2.62
2023-02-27T21:51:03.289Z,-2.49
2023-02-27T21:53:30.290Z,-2.41
2023-02-27T21:56:02.956Z,-2.60
2023-02-27T21:58:29.380Z,-2.49
2023-02-27T22:00:56.499Z,-2.51
2023-02-27T22:03:23.039Z,-2.45
2023-02-27T22:05:49.461Z,-2.36
2023-02-27T22:08:15.905Z,-2.34
2023-02-27T22:10:48.569Z,-2.32
2023-02-27T22:13:15.612Z,-2.38
2023-02-27T22:15:42.466Z,-2.34
2023-02-27T22:18:09.391Z,-2.44
2023-02-27T22:20:38.893Z,-2.46
2023-02-27T22:23:05.295Z,-2.43
2023-02-27T22:25:32.477Z,-2.43
2023-02-27T22:27:59.802Z,-2.48
2023-02-27T22:30:27.288Z,-2.57
2023-02-27T22:32:54.853Z,-2.64
2023-02-27T22:35:22.575Z,-2.57
2023-02-27T22:37:49.285Z,-2.53
2023-02-27T22:40:17.852Z,-2.59
2023-02-27T22:42:45.353Z,-2.49
2023-02-27T22:45:12.910Z,-2.44
2023-02-27T22:47:39.314Z,-2.53
2023-02-27T22:50:06.543Z,-2.65
2023-02-27T22:52:36.225Z,-2.60
2023-02-27T22:55:03.430Z,-2.53
2023-02-27T22:57:29.862Z,-2.57
2023-02-27T22:59:56.618Z,-2.61
2023-02-27T23:02:23.030Z,-2.68
2023-02-27T23:04:49.410Z,-2.55
2023-02-27T23:07:16.824Z,-2.43
2023-02-27T23:09:43.814Z,-2.50
2023-02-27T23:12:10.253Z,-2.50
2023-02-27T23:14:37.074Z,-2.54
2023-02-27T23:17:03.514Z,-2.65
2023-02-27T23:19:29.987Z,-2.72
2023-02-27T23:21:56.880Z,-2.69
2023-02-27T23:24:23.304Z,-2.70
2023-02-27T23:26:51.468Z,-2.67
2023-02-27T23:29:18.924Z,-2.59
2023-02-27T23:31:45.902Z,-2.56
2023-02-27T23:34:12.430Z,-2.81
2023-02-27T23:36:39.062Z,-2.79
2023-02-27T23:39:06.620Z,-2.76
2023-02-27T23:41:33.617Z,-2.79
2023-02-27T23:44:01.413Z,-2.87
2023-02-27T23:46:30.874Z,-2.87
2023-02-27T23:49:00.929Z,-3.07
2023-02-27T23:51:30.240Z,-3.02
2023-02-27T23:53:57.673Z,-2.96
2023-02-27T23:56:26.804Z,-2.89
2023-02-27T23:59:00.247Z,-2.76
